sensor_id;sensor_type;location;lat;lon;timestamp;pressure;altitude;pressure_sealevel;temperature;humidity
50550;BME280;36505;52.512;13.460;2023-04-01T00:01:10;99156.81;;;9.96;91.73
50550;BME280;36505;52.512;13.460;2023-04-01T00:03:37;99157.59;;;9.97;92.02
50550;BME280;36505;52.512;13.460;2023-04-01T00:06:02;99154.88;;;9.91;91.66
50550;BME280;36505;52.512;13.460;2023-04-01T00:08:28;99155.72;;;9.92;91.43
50550;BME280;36505;52.512;13.460;2023-04-01T00:10:54;99154.88;;;9.97;91.60
50550;BME280;36505;52.512;13.460;2023-04-01T00:13:20;99160.09;;;9.93;91.39
50550;BME280;36505;52.512;13.460;2023-04-01T00:15:46;99156.25;;;9.94;91.61
50550;BME280;36505;52.512;13.460;2023-04-01T00:18:12;99154.88;;;9.97;91.74
50550;BME280;36505;52.512;13.460;2023-04-01T00:20:38;99156.00;;;9.96;91.85
50550;BME280;36505;52.512;13.460;2023-04-01T00:23:04;99143.44;;;9.84;91.75
50550;BME280;36505;52.512;13.460;2023-04-01T00:25:30;99157.06;;;9.95;91.56
50550;BME280;36505;52.512;13.460;2023-04-01T00:27:56;99149.69;;;9.95;91.49
50550;BME280;36505;52.512;13.460;2023-04-01T00:30:21;99153.78;;;9.93;91.39
50550;BME280;36505;52.512;13.460;2023-04-01T00:32:46;99143.72;;;9.88;91.57
50550;BME280;36505;52.512;13.460;2023-04-01T00:35:12;99152.72;;;9.94;91.90
50550;BME280;36505;52.512;13.460;2023-04-01T00:37:38;99148.06;;;9.94;91.79
50550;BME280;36505;52.512;13.460;2023-04-01T00:40:42;99150.53;;;9.96;91.80
50550;BME280;36505;52.512;13.460;2023-04-01T00:43:18;99149.97;;;9.94;91.54
50550;BME280;36505;52.512;13.460;2023-04-01T00:45:47;99145.31;;;9.94;91.55
50550;BME280;36505;52.512;13.460;2023-04-01T00:48:21;99152.44;;;9.95;91.62
50550;BME280;36505;52.512;13.460;2023-04-01T00:50:56;99148.31;;;9.98;91.75
50550;BME280;36505;52.512;13.460;2023-04-01T00:53:23;99143.69;;;9.93;91.48
50550;BME280;36505;52.512;13.460;2023-04-01T00:55:54;99144.47;;;9.99;91.44
50550;BME280;36505;52.512;13.460;2023-04-01T00:58:25;99154.31;;;10.00;91.39
50550;BME280;36505;52.512;13.460;2023-04-01T01:00:53;99157.06;;;10.00;91.53
50550;BME280;36505;52.512;13.460;2023-04-01T01:03:20;99139.03;;;9.94;91.50
50550;BME280;36505;52.512;13.460;2023-04-01T01:05:59;99154.88;;;10.02;91.51
50550;BME280;36505;52.512;13.460;2023-04-01T01:19:57;99157.03;;;10.05;91.50
50550;BME280;36505;52.512;13.460;2023-04-01T01:22:52;99151.03;;;10.03;91.54
50550;BME280;36505;52.512;13.460;2023-04-01T01:34:03;99158.66;;;10.06;91.90
50550;BME280;36505;52.512;13.460;2023-04-01T01:36:12;99172.34;;;10.06;92.25
50550;BME280;36505;52.512;13.460;2023-04-01T01:38:39;99158.69;;;10.01;92.51
50550;BME280;36505;52.512;13.460;2023-04-01T01:41:06;99165.22;;;10.05;92.32
50550;BME280;36505;52.512;13.460;2023-04-01T01:43:37;99165.81;;;10.02;92.12
50550;BME280;36505;52.512;13.460;2023-04-01T01:46:08;99168.53;;;10.02;92.13
50550;BME280;36505;52.512;13.460;2023-04-01T01:48:36;99159.25;;;9.98;91.97
50550;BME280;36505;52.512;13.460;2023-04-01T01:51:05;99151.84;;;9.98;92.18
50550;BME280;36505;52.512;13.460;2023-04-01T01:53:30;99169.88;;;10.04;92.26
50550;BME280;36505;52.512;13.460;2023-04-01T01:55:56;99162.50;;;10.05;92.30
50550;BME280;36505;52.512;13.460;2023-04-01T02:00:59;99162.25;;;10.01;92.41
50550;BME280;36505;52.512;13.460;2023-04-01T02:03:27;99176.75;;;10.02;92.49
50550;BME280;36505;52.512;13.460;2023-04-01T02:05:56;99175.91;;;10.01;92.78
50550;BME280;36505;52.512;13.460;2023-04-01T02:08:28;99178.09;;;9.99;92.76
50550;BME280;36505;52.512;13.460;2023-04-01T02:10:59;99171.81;;;9.99;93.11
50550;BME280;36505;52.512;13.460;2023-04-01T02:13:52;99168.00;;;10.00;93.39
50550;BME280;36505;52.512;13.460;2023-04-01T02:16:33;99168.25;;;9.98;93.49
50550;BME280;36505;52.512;13.460;2023-04-01T02:19:02;99173.72;;;9.98;93.57
50550;BME280;36505;52.512;13.460;2023-04-01T02:21:33;99174.56;;;9.99;93.66
50550;BME280;36505;52.512;13.460;2023-04-01T02:24:02;99168.00;;;9.95;93.58
50550;BME280;36505;52.512;13.460;2023-04-01T02:26:29;99171.81;;;9.99;93.62
50550;BME280;36505;52.512;13.460;2023-04-01T02:28:56;99179.47;;;9.97;93.59
50550;BME280;36505;52.512;13.460;2023-04-01T02:31:23;99180.03;;;9.94;93.81
50550;BME280;36505;52.512;13.460;2023-04-01T02:33:49;99177.84;;;9.90;94.10
50550;BME280;36505;52.512;13.460;2023-04-01T02:36:16;99174.06;;;9.86;94.14
50550;BME280;36505;52.512;13.460;2023-04-01T02:38:42;99177.03;;;9.90;94.04
50550;BME280;36505;52.512;13.460;2023-04-01T02:41:10;99177.84;;;9.90;94.15
50550;BME280;36505;52.512;13.460;2023-04-01T02:43:35;99185.22;;;9.90;94.24
50550;BME280;36505;52.512;13.460;2023-04-01T02:46:01;99178.16;;;9.89;94.28
50550;BME280;36505;52.512;13.460;2023-04-01T02:48:27;99186.34;;;9.84;94.36
50550;BME280;36505;52.512;13.460;2023-04-01T02:50:52;99194.28;;;9.85;94.69
50550;BME280;36505;52.512;13.460;2023-04-01T02:53:18;99193.19;;;9.86;94.96
50550;BME280;36505;52.512;13.460;2023-04-01T02:55:43;99193.75;;;9.88;95.03
50550;BME280;36505;52.512;13.460;2023-04-01T02:58:10;99198.09;;;9.89;95.17
50550;BME280;36505;52.512;13.460;2023-04-01T03:00:36;99200.03;;;9.89;94.81
50550;BME280;36505;52.512;13.460;2023-04-01T03:03:01;99199.22;;;9.88;94.72
50550;BME280;36505;52.512;13.460;2023-04-01T03:05:27;99207.41;;;9.88;94.70
50550;BME280;36505;52.512;13.460;2023-04-01T03:07:53;99188.56;;;9.82;94.72
50550;BME280;36505;52.512;13.460;2023-04-01T03:10:18;99204.09;;;9.91;94.96
50550;BME280;36505;52.512;13.460;2023-04-01T03:12:44;99197.81;;;9.91;94.74
50550;BME280;36505;52.512;13.460;2023-04-01T03:15:11;99203.28;;;9.91;94.42
50550;BME280;36505;52.512;13.460;2023-04-01T03:17:38;99189.09;;;9.89;94.54
50550;BME280;36505;52.512;13.460;2023-04-01T03:20:05;99192.09;;;9.87;94.36
50550;BME280;36505;52.512;13.460;2023-04-01T03:22:31;99206.56;;;9.93;94.12
50550;BME280;36505;52.512;13.460;2023-04-01T03:24:56;99206.56;;;9.93;94.24
50550;BME280;36505;52.512;13.460;2023-04-01T03:27:21;99208.22;;;9.94;94.09
50550;BME280;36505;52.512;13.460;2023-04-01T03:29:48;99210.13;;;9.94;93.70
50550;BME280;36505;52.512;13.460;2023-04-01T03:32:13;99211.75;;;9.95;93.55
50550;BME280;36505;52.512;13.460;2023-04-01T03:34:39;99203.56;;;9.95;93.92
50550;BME280;36505;52.512;13.460;2023-04-01T03:37:04;99197.00;;;9.90;93.78
50550;BME280;36505;52.512;13.460;2023-04-01T03:39:31;99210.69;;;9.96;93.77
50550;BME280;36505;52.512;13.460;2023-04-01T03:41:56;99213.41;;;9.96;93.45
50550;BME280;36505;52.512;13.460;2023-04-01T03:44:22;99216.13;;;9.96;93.58
50550;BME280;36505;52.512;13.460;2023-04-01T03:46:47;99215.84;;;9.97;93.53
50550;BME280;36505;52.512;13.460;2023-04-01T03:49:12;99225.44;;;9.95;93.38
50550;BME280;36505;52.512;13.460;2023-04-01T03:51:42;99210.94;;;9.84;93.33
50550;BME280;36505;52.512;13.460;2023-04-01T03:54:09;99220.25;;;9.93;93.35
50550;BME280;36505;52.512;13.460;2023-04-01T03:56:35;99227.63;;;9.93;93.48
50550;BME280;36505;52.512;13.460;2023-04-01T03:59:03;99228.97;;;9.90;93.40
50550;BME280;36505;52.512;13.460;2023-04-01T04:01:28;99224.09;;;9.87;93.51
50550;BME280;36505;52.512;13.460;2023-04-01T04:03:55;99227.91;;;9.86;93.43
50550;BME280;36505;52.512;13.460;2023-04-01T04:06:22;99237.19;;;9.85;93.32
50550;BME280;36505;52.512;13.460;2023-04-01T04:08:47;99235.84;;;9.87;93.32
50550;BME280;36505;52.512;13.460;2023-04-01T04:11:13;99239.91;;;9.90;93.24
50550;BME280;36505;52.512;13.460;2023-04-01T04:13:39;99243.19;;;9.92;92.99
50550;BME280;36505;52.512;13.460;2023-04-01T04:16:04;99230.91;;;9.84;93.18
50550;BME280;36505;52.512;13.460;2023-04-01T04:18:30;99220.53;;;9.81;93.82
50550;BME280;36505;52.512;13.460;2023-04-01T04:20:55;99246.22;;;9.96;93.66
50550;BME280;36505;52.512;13.460;2023-04-01T04:23:21;99247.56;;;9.98;93.70
50550;BME280;36505;52.512;13.460;2023-04-01T04:26:13;99241.28;;;9.98;93.68
50550;BME280;36505;52.512;13.460;2023-04-01T04:28:39;99248.97;;;9.96;93.76
50550;BME280;36505;52.512;13.460;2023-04-01T04:31:05;99247.03;;;9.96;93.58
50550;BME280;36505;52.512;13.460;2023-04-01T04:33:32;99256.59;;;9.99;93.11
50550;BME280;36505;52.512;13.460;2023-04-01T04:35:58;99254.94;;;9.98;93.24
50550;BME280;36505;52.512;13.460;2023-04-01T04:38:25;99252.78;;;9.95;93.42
50550;BME280;36505;52.512;13.460;2023-04-01T04:40:51;99256.59;;;9.99;93.43
50550;BME280;36505;52.512;13.460;2023-04-01T04:43:17;99258.22;;;10.00;92.88
50550;BME280;36505;52.512;13.460;2023-04-01T04:45:43;99262.34;;;10.02;93.26
50550;BME280;36505;52.512;13.460;2023-04-01T04:48:10;99253.31;;;10.02;93.22
50550;BME280;36505;52.512;13.460;2023-04-01T04:50:40;99263.16;;;10.03;93.27
50550;BME280;36505;52.512;13.460;2023-04-01T04:53:05;99259.59;;;9.97;93.15
50550;BME280;36505;52.512;13.460;2023-04-01T04:55:30;99261.53;;;10.02;93.27
50550;BME280;36505;52.512;13.460;2023-04-01T04:57:56;99267.78;;;9.97;93.21
50550;BME280;36505;52.512;13.460;2023-04-01T05:00:21;99270.25;;;9.99;93.34
50550;BME280;36505;52.512;13.460;2023-04-01T05:02:46;99262.91;;;9.94;93.41
50550;BME280;36505;52.512;13.460;2023-04-01T05:05:12;99266.97;;;9.97;93.73
50550;BME280;36505;52.512;13.460;2023-04-01T05:07:37;99265.91;;;9.93;93.56
50550;BME280;36505;52.512;13.460;2023-04-01T05:10:03;99268.91;;;9.96;93.59
50550;BME280;36505;52.512;13.460;2023-04-01T05:12:29;99279.03;;;9.96;93.47
50550;BME280;36505;52.512;13.460;2023-04-01T05:14:54;99275.19;;;9.97;93.41
50550;BME280;36505;52.512;13.460;2023-04-01T05:17:20;99269.44;;;9.98;93.62
50550;BME280;36505;52.512;13.460;2023-04-01T05:19:45;99277.38;;;10.00;93.31
50550;BME280;36505;52.512;13.460;2023-04-01T05:22:11;99272.97;;;10.04;93.34
50550;BME280;36505;52.512;13.460;2023-04-01T05:24:36;99277.91;;;10.07;93.24
50550;BME280;36505;52.512;13.460;2023-04-01T05:27:02;99283.38;;;10.07;93.19
50550;BME280;36505;52.512;13.460;2023-04-01T05:29:27;99287.75;;;10.08;93.13
50550;BME280;36505;52.512;13.460;2023-04-01T05:31:53;99283.94;;;10.09;92.98
50550;BME280;36505;52.512;13.460;2023-04-01T05:34:18;99286.38;;;10.10;93.14
50550;BME280;36505;52.512;13.460;2023-04-01T05:36:44;99286.09;;;10.12;93.31
50550;BME280;36505;52.512;13.460;2023-04-01T05:39:10;99281.19;;;10.14;93.33
50550;BME280;36505;52.512;13.460;2023-04-01T05:41:36;99288.28;;;10.15;93.21
50550;BME280;36505;52.512;13.460;2023-04-01T05:44:02;99290.75;;;10.16;93.23
50550;BME280;36505;52.512;13.460;2023-04-01T05:46:28;99291.31;;;10.18;93.26
50550;BME280;36505;52.512;13.460;2023-04-01T05:48:53;99289.13;;;10.20;93.03
50550;BME280;36505;52.512;13.460;2023-04-01T05:51:19;99285.56;;;10.15;92.99
50550;BME280;36505;52.512;13.460;2023-04-01T05:53:44;99299.53;;;10.23;92.98
50550;BME280;36505;52.512;13.460;2023-04-01T05:56:09;99296.78;;;10.23;93.13
50550;BME280;36505;52.512;13.460;2023-04-01T05:58:36;99296.22;;;10.26;92.98
50550;BME280;36505;52.512;13.460;2023-04-01T06:01:05;99303.06;;;10.29;93.23
50550;BME280;36505;52.512;13.460;2023-04-01T06:03:30;99302.78;;;10.25;93.26
50550;BME280;36505;52.512;13.460;2023-04-01T06:05:56;99305.22;;;10.32;93.28
50550;BME280;36505;52.512;13.460;2023-04-01T06:08:21;99309.59;;;10.33;93.06
50550;BME280;36505;52.512;13.460;2023-04-01T06:16:25;99317.53;;;10.40;92.74
50550;BME280;36505;52.512;13.460;2023-04-01T06:21:35;99326.56;;;10.40;92.63
50550;BME280;36505;52.512;13.460;2023-04-01T06:24:24;99330.91;;;10.46;92.75
50550;BME280;36505;52.512;13.460;2023-04-01T06:27:36;99327.63;;;10.49;92.87
50550;BME280;36505;52.512;13.460;2023-04-01T06:33:01;99334.19;;;10.48;92.64
50550;BME280;36505;52.512;13.460;2023-04-01T06:38:13;99339.41;;;10.50;92.43
50550;BME280;36505;52.512;13.460;2023-04-01T06:54:35;99350.84;;;10.62;93.25
50550;BME280;36505;52.512;13.460;2023-04-01T06:59:44;99348.41;;;10.60;93.84
50550;BME280;36505;52.512;13.460;2023-04-01T07:04:41;99349.22;;;10.61;94.13
50550;BME280;36505;52.512;13.460;2023-04-01T07:10:04;99354.94;;;10.69;94.18
50550;BME280;36505;52.512;13.460;2023-04-01T07:14:56;99362.03;;;10.76;94.24
50550;BME280;36505;52.512;13.460;2023-04-01T07:17:27;99365.06;;;10.74;94.35
50550;BME280;36505;52.512;13.460;2023-04-01T07:22:28;99364.78;;;10.76;94.14
50550;BME280;36505;52.512;13.460;2023-04-01T07:24:54;99369.97;;;10.77;94.12
50550;BME280;36505;52.512;13.460;2023-04-01T07:27:23;99369.69;;;10.79;93.94
50550;BME280;36505;52.512;13.460;2023-04-01T07:29:48;99368.31;;;10.81;94.30
50550;BME280;36505;52.512;13.460;2023-04-01T07:32:29;99369.13;;;10.82;94.28
50550;BME280;36505;52.512;13.460;2023-04-01T08:01:13;99386.09;;;10.79;93.44
50550;BME280;36505;52.512;13.460;2023-04-01T08:04:18;99398.97;;;10.78;93.16
50550;BME280;36505;52.512;13.460;2023-04-01T08:06:53;99397.38;;;10.77;93.38
50550;BME280;36505;52.512;13.460;2023-04-01T08:12:21;99396.81;;;10.75;93.42
50550;BME280;36505;52.512;13.460;2023-04-01T08:14:56;99402.31;;;10.70;93.87
50550;BME280;36505;52.512;13.460;2023-04-01T08:25:26;99410.28;;;10.31;92.08
50550;BME280;36505;52.512;13.460;2023-04-01T08:30:47;99417.38;;;9.91;92.74
50550;BME280;36505;52.512;13.460;2023-04-01T08:33:19;99428.53;;;9.70;92.92
50550;BME280;36505;52.512;13.460;2023-04-01T08:38:49;99433.19;;;9.64;94.07
50550;BME280;36505;52.512;13.460;2023-04-01T09:17:20;99453.72;;;9.77;92.38
50550;BME280;36505;52.512;13.460;2023-04-01T09:22:48;99461.66;;;9.78;92.43
50550;BME280;36505;52.512;13.460;2023-04-01T09:25:29;99471.19;;;9.66;91.40
50550;BME280;36505;52.512;13.460;2023-04-01T09:28:18;99478.03;;;9.73;91.59
50550;BME280;36505;52.512;13.460;2023-04-01T09:36:50;99487.56;;;9.61;89.60
50550;BME280;36505;52.512;13.460;2023-04-01T09:42:41;99493.53;;;9.47;91.26
50550;BME280;36505;52.512;13.460;2023-04-01T09:45:17;99495.72;;;9.45;90.92
50550;BME280;36505;52.512;13.460;2023-04-01T09:53:48;99509.31;;;9.30;90.98
50550;BME280;36505;52.512;13.460;2023-04-01T10:10:55;99523.16;;;9.14;91.71
50550;BME280;36505;52.512;13.460;2023-04-01T10:16:22;99526.41;;;9.10;92.36
50550;BME280;36505;52.512;13.460;2023-04-01T10:24:55;99531.13;;;9.20;92.04
50550;BME280;36505;52.512;13.460;2023-04-01T10:52:36;99546.06;;;9.07;91.38
50550;BME280;36505;52.512;13.460;2023-04-01T10:58:29;99546.09;;;9.13;90.21
50550;BME280;36505;52.512;13.460;2023-04-01T11:13:05;99564.13;;;8.77;90.52
50550;BME280;36505;52.512;13.460;2023-04-01T11:24:20;99573.75;;;8.84;89.33
50550;BME280;36505;52.512;13.460;2023-04-01T11:40:08;99587.31;;;8.20;90.57
50550;BME280;36505;52.512;13.460;2023-04-01T11:53:51;99608.66;;;8.02;92.87
50550;BME280;36505;52.512;13.460;2023-04-01T12:02:20;99617.81;;;7.90;92.20
50550;BME280;36505;52.512;13.460;2023-04-01T12:05:08;99628.69;;;7.90;92.04
50550;BME280;36505;52.512;13.460;2023-04-01T12:10:19;99632.44;;;7.84;92.69
50550;BME280;36505;52.512;13.460;2023-04-01T12:16:01;99637.81;;;7.79;93.15
50550;BME280;36505;52.512;13.460;2023-04-01T12:18:43;99641.94;;;7.82;93.23
50550;BME280;36505;52.512;13.460;2023-04-01T12:21:38;99643.34;;;7.84;92.27
50550;BME280;36505;52.512;13.460;2023-04-01T12:24:46;99656.16;;;7.84;93.19
50550;BME280;36505;52.512;13.460;2023-04-01T12:33:02;99655.03;;;7.85;92.24
50550;BME280;36505;52.512;13.460;2023-04-01T12:36:08;99665.41;;;7.83;92.67
50550;BME280;36505;52.512;13.460;2023-04-01T12:44:11;99671.72;;;7.88;92.31
50550;BME280;36505;52.512;13.460;2023-04-01T13:08:24;99708.41;;;7.81;90.41
50550;BME280;36505;52.512;13.460;2023-04-01T13:11:06;99697.84;;;7.84;90.90
50550;BME280;36505;52.512;13.460;2023-04-01T13:24:57;99718.75;;;7.79;91.41
50550;BME280;36505;52.512;13.460;2023-04-01T13:27:32;99714.38;;;7.78;90.97
50550;BME280;36505;52.512;13.460;2023-04-01T13:30:21;99723.69;;;7.82;90.37
50550;BME280;36505;52.512;13.460;2023-04-01T13:43:42;99740.09;;;7.48;91.64
50550;BME280;36505;52.512;13.460;2023-04-01T13:46:22;99739.03;;;7.49;91.39
50550;BME280;36505;52.512;13.460;2023-04-01T13:54:57;99748.41;;;7.25;91.54
50550;BME280;36505;52.512;13.460;2023-04-01T14:06:29;99756.50;;;7.20;92.37
50550;BME280;36505;52.512;13.460;2023-04-01T14:14:42;99770.38;;;7.19;92.91
50550;BME280;36505;52.512;13.460;2023-04-01T14:28:44;99797.06;;;7.05;90.95
50550;BME280;36505;52.512;13.460;2023-04-01T14:34:09;99794.28;;;7.17;90.81
50550;BME280;36505;52.512;13.460;2023-04-01T14:47:59;99812.16;;;6.96;89.98
50550;BME280;36505;52.512;13.460;2023-04-01T14:50:40;99824.94;;;6.95;90.34
50550;BME280;36505;52.512;13.460;2023-04-01T14:55:58;99824.81;;;6.90;90.62
50550;BME280;36505;52.512;13.460;2023-04-01T14:58:57;99825.22;;;6.82;91.19
50550;BME280;36505;52.512;13.460;2023-04-01T15:01:36;99827.53;;;6.90;91.09
50550;BME280;36505;52.512;13.460;2023-04-01T15:07:11;99848.47;;;6.90;89.92
50550;BME280;36505;52.512;13.460;2023-04-01T15:12:38;99852.41;;;6.94;90.62
50550;BME280;36505;52.512;13.460;2023-04-01T15:18:27;99856.25;;;6.69;89.67
50550;BME280;36505;52.512;13.460;2023-04-01T15:23:44;99867.53;;;6.61;89.64
50550;BME280;36505;52.512;13.460;2023-04-01T15:34:41;99869.19;;;6.39;90.13
50550;BME280;36505;52.512;13.460;2023-04-01T15:42:16;99879.72;;;6.35;91.02
50550;BME280;36505;52.512;13.460;2023-04-01T15:48:02;99885.88;;;6.31;91.51
50550;BME280;36505;52.512;13.460;2023-04-01T15:50:41;99901.97;;;6.32;90.16
50550;BME280;36505;52.512;13.460;2023-04-01T16:17:29;99939.66;;;6.06;90.22
50550;BME280;36505;52.512;13.460;2023-04-01T16:20:02;99934.19;;;5.94;90.53
50550;BME280;36505;52.512;13.460;2023-04-01T16:25:17;99949.06;;;5.91;90.87
50550;BME280;36505;52.512;13.460;2023-04-01T16:28:02;99962.13;;;5.83;90.92
50550;BME280;36505;52.512;13.460;2023-04-01T16:30:38;99952.31;;;5.82;91.18
50550;BME280;36505;52.512;13.460;2023-04-01T16:33:28;99973.31;;;5.75;90.81
50550;BME280;36505;52.512;13.460;2023-04-01T16:36:08;99963.50;;;5.74;90.92
50550;BME280;36505;52.512;13.460;2023-04-01T16:38:43;99978.84;;;5.68;90.64
50550;BME280;36505;52.512;13.460;2023-04-01T16:41:27;99983.09;;;5.64;90.46
50550;BME280;36505;52.512;13.460;2023-04-01T16:44:08;99975.06;;;5.57;90.28
50550;BME280;36505;52.512;13.460;2023-04-01T16:46:43;99991.13;;;5.59;89.79
50550;BME280;36505;52.512;13.460;2023-04-01T16:51:54;100000.31;;;5.58;89.49
50550;BME280;36505;52.512;13.460;2023-04-01T17:05:08;100017.25;;;5.42;90.61
50550;BME280;36505;52.512;13.460;2023-04-01T17:10:28;100031.88;;;5.41;89.85
50550;BME280;36505;52.512;13.460;2023-04-01T17:13:15;100035.50;;;5.35;90.06
50550;BME280;36505;52.512;13.460;2023-04-01T17:15:50;100040.56;;;5.31;90.41
50550;BME280;36505;52.512;13.460;2023-04-01T17:21:57;100039.13;;;5.29;90.93
50550;BME280;36505;52.512;13.460;2023-04-01T17:24:14;100051.66;;;5.30;91.18
50550;BME280;36505;52.512;13.460;2023-04-01T17:27:03;100049.63;;;5.25;91.97
50550;BME280;36505;52.512;13.460;2023-04-01T17:34:42;100072.28;;;5.12;91.35
50550;BME280;36505;52.512;13.460;2023-04-01T17:37:40;100081.72;;;5.10;90.94
50550;BME280;36505;52.512;13.460;2023-04-01T17:42:46;100089.75;;;4.98;90.89
50550;BME280;36505;52.512;13.460;2023-04-01T17:47:59;100100.16;;;4.83;90.59
50550;BME280;36505;52.512;13.460;2023-04-01T17:53:29;100106.84;;;4.56;91.37
50550;BME280;36505;52.512;13.460;2023-04-01T17:56:02;100128.28;;;4.57;91.97
50550;BME280;36505;52.512;13.460;2023-04-01T17:58:35;100127.88;;;4.60;91.70
50550;BME280;36505;52.512;13.460;2023-04-01T18:04:01;100131.84;;;4.58;92.17
50550;BME280;36505;52.512;13.460;2023-04-01T18:26:10;100155.38;;;4.32;93.05
50550;BME280;36505;52.512;13.460;2023-04-01T18:28:52;100176.63;;;4.35;92.24
50550;BME280;36505;52.512;13.460;2023-04-01T18:31:24;100173.69;;;4.37;92.77
50550;BME280;36505;52.512;13.460;2023-04-01T18:39:16;100198.75;;;4.32;91.83
50550;BME280;36505;52.512;13.460;2023-04-01T18:44:42;100207.91;;;4.31;92.86
50550;BME280;36505;52.512;13.460;2023-04-01T18:47:25;100215.19;;;4.37;91.88
50550;BME280;36505;52.512;13.460;2023-04-01T18:52:59;100225.75;;;4.14;91.52
50550;BME280;36505;52.512;13.460;2023-04-01T18:55:42;100230.06;;;4.28;92.31
50550;BME280;36505;52.512;13.460;2023-04-01T18:58:20;100234.22;;;4.24;92.25
50550;BME280;36505;52.512;13.460;2023-04-01T19:03:53;100240.50;;;4.18;92.14
50550;BME280;36505;52.512;13.460;2023-04-01T19:09:11;100253.44;;;4.23;92.51
50550;BME280;36505;52.512;13.460;2023-04-01T19:14:28;100253.03;;;4.13;92.14
50550;BME280;36505;52.512;13.460;2023-04-01T19:17:16;100253.25;;;4.11;92.21
50550;BME280;36505;52.512;13.460;2023-04-01T19:19:58;100263.50;;;4.09;92.19
50550;BME280;36505;52.512;13.460;2023-04-01T19:23:16;100265.56;;;4.07;92.58
50550;BME280;36505;52.512;13.460;2023-04-01T19:25:51;100274.72;;;4.13;91.60
50550;BME280;36505;52.512;13.460;2023-04-01T19:28:48;100278.31;;;4.00;91.67
50550;BME280;36505;52.512;13.460;2023-04-01T19:34:37;100284.78;;;3.99;92.33
50550;BME280;36505;52.512;13.460;2023-04-01T19:37:20;100285.41;;;3.94;92.45
50550;BME280;36505;52.512;13.460;2023-04-01T19:50:30;100312.53;;;3.81;93.33
50550;BME280;36505;52.512;13.460;2023-04-01T19:53:07;100313.75;;;3.85;93.29
50550;BME280;36505;52.512;13.460;2023-04-01T19:58:39;100325.66;;;3.78;93.26
50550;BME280;36505;52.512;13.460;2023-04-01T20:01:14;100329.81;;;3.74;92.92
50550;BME280;36505;52.512;13.460;2023-04-01T20:09:07;100341.28;;;3.69;93.73
50550;BME280;36505;52.512;13.460;2023-04-01T20:17:09;100364.19;;;3.67;93.41
50550;BME280;36505;52.512;13.460;2023-04-01T20:19:50;100367.75;;;3.61;92.88
50550;BME280;36505;52.512;13.460;2023-04-01T20:24:51;100385.84;;;3.53;92.95
50550;BME280;36505;52.512;13.460;2023-04-01T20:27:24;100382.72;;;3.56;91.85
50550;BME280;36505;52.512;13.460;2023-04-01T20:40:51;100410.59;;;3.37;91.68
50550;BME280;36505;52.512;13.460;2023-04-01T20:43:52;100403.72;;;3.28;91.66
50550;BME280;36505;52.512;13.460;2023-04-01T20:46:20;100406.84;;;3.25;91.52
50550;BME280;36505;52.512;13.460;2023-04-01T20:49:07;100416.19;;;3.23;92.42
50550;BME280;36505;52.512;13.460;2023-04-01T20:51:47;100419.72;;;3.23;93.33
50550;BME280;36505;52.512;13.460;2023-04-01T20:56:55;100433.47;;;3.22;92.15
50550;BME280;36505;52.512;13.460;2023-04-01T21:02:20;100432.41;;;3.16;91.20
50550;BME280;36505;52.512;13.460;2023-04-01T21:10:21;100455.34;;;3.20;91.62
50550;BME280;36505;52.512;13.460;2023-04-01T21:40:48;100500.59;;;2.92;87.88
50550;BME280;36505;52.512;13.460;2023-04-01T21:43:31;100504.53;;;2.96;87.81
50550;BME280;36505;52.512;13.460;2023-04-01T21:46:29;100507.81;;;2.85;87.47
50550;BME280;36505;52.512;13.460;2023-04-01T22:07:38;100559.00;;;2.86;86.62
50550;BME280;36505;52.512;13.460;2023-04-01T22:18:30;100553.94;;;2.76;85.47
50550;BME280;36505;52.512;13.460;2023-04-01T22:21:09;100566.25;;;2.79;86.03
50550;BME280;36505;52.512;13.460;2023-04-01T22:23:53;100565.63;;;2.84;86.75
50550;BME280;36505;52.512;13.460;2023-04-01T22:26:38;100567.69;;;2.82;85.29
50550;BME280;36505;52.512;13.460;2023-04-01T22:34:22;100565.97;;;2.74;85.68
50550;BME280;36505;52.512;13.460;2023-04-01T22:37:01;100574.31;;;2.72;85.18
50550;BME280;36505;52.512;13.460;2023-04-01T22:42:27;100600.16;;;2.82;85.21
50550;BME280;36505;52.512;13.460;2023-04-01T22:45:23;100591.19;;;2.81;84.96
50550;BME280;36505;52.512;13.460;2023-04-01T22:51:00;100589.25;;;2.68;85.21
50550;BME280;36505;52.512;13.460;2023-04-01T22:54:07;100617.16;;;2.75;84.53
50550;BME280;36505;52.512;13.460;2023-04-01T22:56:41;100595.94;;;2.72;84.73
50550;BME280;36505;52.512;13.460;2023-04-01T22:59:27;100608.03;;;2.76;84.94
50550;BME280;36505;52.512;13.460;2023-04-01T23:02:03;100603.66;;;2.75;84.43
50550;BME280;36505;52.512;13.460;2023-04-01T23:04:33;100606.59;;;2.81;83.98
50550;BME280;36505;52.512;13.460;2023-04-01T23:07:16;100612.59;;;2.76;83.82
50550;BME280;36505;52.512;13.460;2023-04-01T23:09:43;100621.63;;;2.90;83.00
50550;BME280;36505;52.512;13.460;2023-04-01T23:12:11;100627.97;;;2.75;83.62
50550;BME280;36505;52.512;13.460;2023-04-01T23:22:38;100633.78;;;2.72;83.96
50550;BME280;36505;52.512;13.460;2023-04-01T23:25:25;100647.56;;;2.77;83.45
50550;BME280;36505;52.512;13.460;2023-04-01T23:35:49;100648.59;;;2.55;82.39
50550;BME280;36505;52.512;13.460;2023-04-01T23:38:16;100661.75;;;2.58;82.68
50550;BME280;36505;52.512;13.460;2023-04-01T23:40:42;100655.44;;;2.72;82.15
50550;BME280;36505;52.512;13.460;2023-04-01T23:43:19;100656.78;;;2.62;82.19
50550;BME280;36505;52.512;13.460;2023-04-01T23:45:47;100671.13;;;2.62;82.31
50550;BME280;36505;52.512;13.460;2023-04-01T23:48:15;100654.25;;;2.60;82.15
50550;BME280;36505;52.512;13.460;2023-04-01T23:50:41;100668.44;;;2.62;82.42
50550;BME280;36505;52.512;13.460;2023-04-01T23:55:41;100688.25;;;2.69;82.88
50550;BME280;36505;52.512;13.460;2023-04-01T23:58:27;100688.44;;;2.68;82.68
